Airfield :







YOU CAN JOIN US ON...

 
LOGIN :

Register | Disclaimer

   EN    FR    IT 

 









Legend :    VFR   Marginal VFR   IFR   Intensive IFR   Very Intensive IFR
Visi :
Ceiling :
>= 8 km
>= 3000ft
5 to 8 km
1000 to 3000 ft
1500m to 5 km
500 to 1000 ft
800 to 1500m
200 to 500 ft
< 800m
< 200 ft
Symbols :   Thunderstorms  Fog  Heavy snow  Heavy precipitations  Wind > 20 kt






- Airport Elevation : 72 ft
- IATA code : YDF


CYDF - Deer Lake

CURRENT METAR :
  • 141800Z 03004KT 320V040 15SM FEW025 FEW160 BKN220 10/04 A3017 RMK SC1AC1CI4 SLP220

EXPIRED METARs :
  • 141700Z 04007KT 320V050 15SM FEW022 SCT160 BKN220 09/04 A3018 RMK SC2AC2CI2 SLP221
  • 141600Z 36005KT 340V050 15SM BKN020 08/04 A3019 RMK SC7 SLP225

TAF TAF CYDF
Valid from the 14 at 14:00 until the 15 at 02:00 UTC


141338Z 1414/1502 05010KT P6SM OVC015
TEMPO 1414/1418 SCT015 BKN025
FM141800 05008KT P6SM SCT020
TEMPO 1418/1420 BKN020 RMK NXT FCST BY 142000Z



MET'MAP, your aeronautical weather chart ! - Copyright ORBIFLY December 2007 - Disclaimer

ORBIFLY MET'MAP TEAM :

Programming & Development : Alexandra Zaïnal
Concept & Development : Baudouin d'Aumeries
Co-Development & Prog : Marc-Olivier Méhu
Technical & hardware support : Manuel Goepfert

Contact : metmap@orbifly.com




SOURCES & CREDITS :

   NOAA